Time;durP1;ratioP1;P1;durP2;ratioP2;P2;SDS_P1;SDS_P2;PMS_P1;PMS_P2;Temp;Humidity;BMP_temperature;BMP_pressure;BME280_temperature;BME280_humidity;BME280_pressure;Samples;Min_cycle;Max_cycle;Signal;HPM_P1;HPM_P2
2021/11/23 00:01:13;;;;;;;1999.90;999.90;;;;;;;6.14;83.49;164033.88;5001947;28;20058;-66
2021/11/23 00:03:40;;;;;;;1999.90;999.90;;;;;;;6.20;81.70;164049.00;5000154;28;20064;-66
2021/11/23 00:06:07;;;;;;;1999.90;999.90;;;;;;;6.02;79.90;164000.94;5001661;28;22383;-66
2021/11/23 00:08:33;;;;;;;1999.90;999.90;;;;;;;5.88;81.68;163963.78;5001841;28;20120;-65
2021/11/23 00:11:00;;;;;;;1999.90;999.90;;;;;;;6.13;80.58;164031.09;5000374;28;20080;-65
2021/11/23 00:13:26;;;;;;;1999.90;999.90;;;;;;;6.26;80.40;164066.81;5001234;28;20100;-66
2021/11/23 00:15:53;;;;;;;1999.90;999.90;;;;;;;6.56;80.39;164146.47;5001146;28;20406;-66
2021/11/23 00:18:19;;;;;;;1999.90;999.90;;;;;;;6.61;80.14;164160.22;4999624;28;20054;-66
2021/11/23 00:20:47;;;;;;;1999.90;999.90;;;;;;;6.60;80.14;164157.47;5002852;28;20179;-66
2021/11/23 00:23:14;;;;;;;1999.90;999.90;;;;;;;6.60;79.54;164157.47;5000441;28;20057;-66
2021/11/23 00:25:42;;;;;;;1999.90;999.90;;;;;;;6.44;79.96;164113.50;4999909;28;20049;-66
2021/11/23 00:28:10;;;;;;;1999.90;999.90;;;;;;;6.37;80.38;164095.63;5003406;28;20092;-66
2021/11/23 00:30:38;;;;;;;1999.90;999.90;;;;;;;6.33;80.80;164086.03;4999381;28;20127;-66
2021/11/23 00:33:05;;;;;;;1999.90;999.90;;;;;;;6.52;80.85;164136.88;5001393;28;21699;-66
2021/11/23 00:35:31;;;;;;;1999.90;999.90;;;;;;;6.23;80.98;164057.22;5000622;28;20104;-65
2021/11/23 00:37:59;;;;;;;1999.90;999.90;;;;;;;5.87;80.87;163962.41;4999252;28;20100;-65
2021/11/23 00:40:26;;;;;;;1999.90;999.90;;;;;;;5.81;81.62;163945.94;5000697;28;20076;-65
2021/11/23 00:42:52;;;;;;;1999.90;999.90;;;;;;;5.84;81.05;163954.19;5002595;28;20081;-65
2021/11/23 00:45:20;;;;;;;1999.90;999.90;;;;;;;5.77;81.89;163934.97;4997790;28;20413;-65
2021/11/23 00:47:47;;;;;;;1999.90;999.90;;;;;;;5.84;81.33;163954.19;5000621;28;20485;-65
2021/11/23 00:50:14;;;;;;;1999.90;999.90;;;;;;;5.77;81.21;163934.97;4999964;28;20081;-65
2021/11/23 00:52:41;;;;;;;1999.90;999.90;;;;;;;5.80;81.76;163943.19;4998660;28;20143;-65
2021/11/23 00:55:08;;;;;;;1999.90;999.90;;;;;;;5.78;81.79;163937.72;5000708;28;20579;-65
2021/11/23 00:57:35;;;;;;;1999.90;999.90;;;;;;;5.71;82.05;163919.84;5001137;28;20050;-65
2021/11/23 01:00:06;;;;;;;1999.90;999.90;;;;;;;5.55;81.65;163877.34;5000265;28;21011;-65
2021/11/23 01:02:32;;;;;;;1999.90;999.90;;;;;;;5.54;82.10;163873.16;5000770;28;20081;-65
2021/11/23 01:04:59;;;;;;;1999.90;999.90;;;;;;;5.45;82.64;163849.88;5001417;28;20045;-65
2021/11/23 01:07:26;;;;;;;1999.90;999.90;;;;;;;5.38;83.10;163832.00;4998891;28;20054;-66
2021/11/23 01:09:52;;;;;;;1999.90;999.90;;;;;;;5.18;84.60;163778.50;5000961;28;20053;-65
2021/11/23 01:12:19;;;;;;;1999.90;999.90;;;;;;;5.43;84.14;163844.34;5001770;28;20073;-65
2021/11/23 01:14:45;;;;;;;1999.90;999.90;;;;;;;5.10;85.10;163756.53;4998166;28;20517;-65
2021/11/23 01:17:14;;;;;;;1999.90;999.90;;;;;;;4.83;86.33;163685.19;5001049;28;20074;-65
2021/11/23 01:19:43;;;;;;;1999.90;999.90;;;;;;;4.93;86.93;163712.63;4999205;28;20092;-66
2021/11/23 01:22:10;;;;;;;1999.90;999.90;;;;;;;5.22;86.40;163788.09;4999670;28;20390;-65
2021/11/23 01:24:37;;;;;;;1999.90;999.90;;;;;;;5.52;84.57;163869.06;5001339;28;20435;-65
2021/11/23 01:27:05;;;;;;;1999.90;999.90;;;;;;;5.57;84.37;163882.81;4999821;28;20057;-65
2021/11/23 01:29:31;;;;;;;1999.90;999.90;;;;;;;5.67;84.00;163907.50;4999897;28;20050;-65
2021/11/23 01:31:58;;;;;;;1999.90;999.90;;;;;;;5.32;84.66;163815.56;5002188;28;20058;-66
2021/11/23 01:34:24;;;;;;;1999.90;999.90;;;;;;;4.75;86.54;163663.25;4997815;28;20120;-65
2021/11/23 01:36:51;;;;;;;1999.90;999.90;;;;;;;4.96;86.83;163719.50;4998511;28;20062;-65
2021/11/23 01:39:18;;;;;;;1999.90;999.90;;;;;;;4.67;88.66;163642.66;5000393;28;20950;-65
2021/11/23 01:41:44;;;;;;;1999.90;999.90;;;;;;;4.34;89.62;163554.88;4997659;28;20428;-65
2021/11/23 01:44:11;;;;;;;1999.90;999.90;;;;;;;4.56;89.20;163612.50;5001999;28;20314;-65
2021/11/23 01:46:37;;;;;;;1999.90;999.90;;;;;;;4.52;89.57;163602.88;5003236;28;20058;-65
2021/11/23 01:49:04;;;;;;;1999.90;999.90;;;;;;;4.79;89.53;163672.84;5001066;28;20041;-65
2021/11/23 01:51:31;;;;;;;1999.90;999.90;;;;;;;5.14;87.94;163767.53;5004731;28;20108;-65
2021/11/23 01:53:58;;;;;;;1999.90;999.90;;;;;;;4.78;89.61;163670.09;5003173;28;20065;-66
2021/11/23 01:56:25;;;;;;;1999.90;999.90;;;;;;;4.73;89.94;163657.75;5001863;28;20516;-65
2021/11/23 01:58:52;;;;;;;1999.90;999.90;;;;;;;4.93;89.80;163712.63;5004182;28;20053;-65
2021/11/23 02:01:18;;;;;;;1999.90;999.90;;;;;;;4.98;89.60;163724.97;5004695;28;20085;-65
2021/11/23 02:03:45;;;;;;;1999.90;999.90;;;;;;;4.91;90.42;163705.75;5003356;28;20355;-65
2021/11/23 02:06:12;;;;;;;1999.90;999.90;;;;;;;4.93;90.24;163711.28;5002053;28;20050;-65
2021/11/23 02:08:38;;;;;;;1999.90;999.90;;;;;;;4.49;91.64;163594.66;5002879;28;20096;-65
2021/11/23 02:11:05;;;;;;;1999.90;999.90;;;;;;;4.58;91.92;163619.38;4999800;28;20198;-65
2021/11/23 02:13:32;;;;;;;1999.90;999.90;;;;;;;4.67;92.14;163641.28;5004498;28;20420;-65
2021/11/23 02:15:59;;;;;;;1999.90;999.90;;;;;;;4.34;92.86;163553.53;5002584;28;20151;-65
2021/11/23 02:18:27;;;;;;;1999.90;999.90;;;;;;;4.22;94.39;163521.97;5000315;28;20042;-65
2021/11/23 02:20:55;;;;;;;1999.90;999.90;;;;;;;4.38;93.49;163564.50;5004358;28;20042;-65
2021/11/23 02:23:22;;;;;;;1999.90;999.90;;;;;;;4.46;93.26;163586.41;5002224;28;20575;-65
2021/11/23 02:25:49;;;;;;;1999.90;999.90;;;;;;;4.63;91.39;163631.72;5003359;28;20054;-65
2021/11/23 02:28:16;;;;;;;1999.90;999.90;;;;;;;4.33;92.90;163550.75;5003635;28;20682;-65
2021/11/23 02:30:46;;;;;;;1999.90;999.90;;;;;;;4.69;91.76;163646.75;5000036;28;20054;-65
2021/11/23 02:33:15;;;;;;;1999.90;999.90;;;;;;;4.65;91.26;163637.19;5003885;28;20069;-66
2021/11/23 02:35:43;;;;;;;1999.90;999.90;;;;;;;5.04;90.60;163740.06;5004158;28;20435;-65
2021/11/23 02:38:11;;;;;;;1999.90;999.90;;;;;;;5.03;90.53;163738.72;5001212;28;20070;-65
2021/11/23 02:40:37;;;;;;;1999.90;999.90;;;;;;;4.90;90.55;163703.03;5001842;28;20045;-65
2021/11/23 02:43:04;;;;;;;1999.90;999.90;;;;;;;4.82;90.45;163682.44;5003014;28;20046;-65
2021/11/23 02:45:31;;;;;;;1999.90;999.90;;;;;;;4.25;92.22;163530.19;4999868;28;20082;-65
2021/11/23 02:47:59;;;;;;;1999.90;999.90;;;;;;;4.32;92.62;163548.06;5001314;28;20412;-65
2021/11/23 02:50:27;;;;;;;1999.90;999.90;;;;;;;4.79;90.87;163674.19;5004929;28;20061;-65
2021/11/23 02:52:54;;;;;;;1999.90;999.90;;;;;;;5.13;89.76;163764.75;5000395;28;20097;-65
2021/11/23 02:55:24;;;;;;;1999.90;999.90;;;;;;;5.28;88.73;163805.97;5003619;28;20085;-65
2021/11/23 02:57:51;;;;;;;1999.90;999.90;;;;;;;4.84;89.82;163686.53;5003005;28;20073;-65
2021/11/23 03:00:24;;;;;;;1999.90;999.90;;;;;;;4.81;89.60;163678.31;4999706;28;20053;-65
2021/11/23 03:02:51;;;;;;;1999.90;999.90;;;;;;;4.81;89.78;163678.31;5002079;28;20187;-65
2021/11/23 03:05:20;;;;;;;1999.90;999.90;;;;;;;5.02;89.19;163735.97;5002968;28;20524;-65
2021/11/23 03:07:48;;;;;;;1999.90;999.90;;;;;;;4.63;90.63;163630.31;4999688;28;20037;-65
2021/11/23 03:10:16;;;;;;;1999.90;999.90;;;;;;;4.91;89.95;163705.75;5002108;28;20386;-65
2021/11/23 03:12:47;;;;;;;1999.90;999.90;;;;;;;5.03;89.22;163737.31;5003785;28;20061;-65
2021/11/23 03:15:14;;;;;;;1999.90;999.90;;;;;;;4.56;89.78;163613.84;5001391;28;20058;-65
2021/11/23 03:17:41;;;;;;;1999.90;999.90;;;;;;;4.32;90.77;163548.06;5001253;28;20049;-65
2021/11/23 03:20:11;;;;;;;1999.90;999.90;;;;;;;4.22;90.78;163523.31;5002785;28;20085;-65
2021/11/23 03:22:38;;;;;;;1999.90;999.90;;;;;;;4.15;90.71;163502.75;4999525;28;20251;-65
2021/11/23 03:25:06;;;;;;;1999.90;999.90;;;;;;;4.16;89.31;163505.53;5001674;28;20140;-65
2021/11/23 03:27:33;;;;;;;1999.90;999.90;;;;;;;3.48;91.02;163325.94;5001838;28;20636;-65
2021/11/23 03:30:00;;;;;;;1999.90;999.90;;;;;;;3.80;89.95;163409.56;4998548;28;20077;-65
2021/11/23 03:32:27;;;;;;;1999.90;999.90;;;;;;;3.82;89.69;163416.38;5000595;28;20108;-65
2021/11/23 03:34:53;;;;;;;1999.90;999.90;;;;;;;4.05;88.79;163478.09;5000595;28;20058;-65
2021/11/23 03:37:24;;;;;;;1999.90;999.90;;;;;;;3.81;88.54;163412.25;5000377;28;20089;-65
2021/11/23 03:39:52;;;;;;;1999.90;999.90;;;;;;;3.97;88.24;163454.78;5002069;28;20057;-65
2021/11/23 03:42:19;;;;;;;1999.90;999.90;;;;;;;3.80;87.75;163409.56;5000541;28;20460;-65
2021/11/23 03:44:46;;;;;;;1999.90;999.90;;;;;;;3.97;87.12;163454.78;4999077;28;20135;-65
2021/11/23 03:47:14;;;;;;;1999.90;999.90;;;;;;;4.14;86.03;163501.41;5002289;28;21105;-65
2021/11/23 03:49:43;;;;;;;1999.90;999.90;;;;;;;4.20;85.51;163517.84;5002264;28;20133;-65
2021/11/23 03:52:10;;;;;;;1999.90;999.90;;;;;;;3.67;86.26;163375.28;5001098;28;20406;-65
2021/11/23 03:54:37;;;;;;;1999.90;999.90;;;;;;;4.07;85.02;163482.22;5000515;28;20116;-65
2021/11/23 03:57:04;;;;;;;1999.90;999.90;;;;;;;3.96;84.58;163453.44;5001251;28;20089;-65
2021/11/23 03:59:31;;;;;;;1999.90;999.90;;;;;;;3.85;84.51;163424.59;5000096;28;20680;-65
2021/11/23 04:01:58;;;;;;;1999.90;999.90;;;;;;;3.61;84.86;163358.81;5001228;28;20046;-65
2021/11/23 04:04:24;;;;;;;1999.90;999.90;;;;;;;3.83;84.68;163419.13;5000420;28;20123;-65
2021/11/23 04:06:53;;;;;;;1999.90;999.90;;;;;;;3.40;85.11;163304.00;5000444;28;20057;-65
2021/11/23 04:09:19;;;;;;;1999.90;999.90;;;;;;;3.28;86.46;163271.13;5000665;28;20050;-65
2021/11/23 04:11:46;;;;;;;1999.90;999.90;;;;;;;3.49;85.10;163328.66;4999086;28;20053;-65
2021/11/23 04:14:12;;;;;;;1999.90;999.90;;;;;;;3.49;85.01;163328.66;5001445;28;20131;-65
2021/11/23 04:16:39;;;;;;;1999.90;999.90;;;;;;;3.59;84.84;163354.72;5002276;28;20085;-65
2021/11/23 04:19:05;;;;;;;1999.90;999.90;;;;;;;3.77;84.31;163402.69;4999724;28;20637;-65
2021/11/23 04:21:32;;;;;;;1999.90;999.90;;;;;;;3.91;83.72;163438.34;5002091;28;20092;-65
2021/11/23 04:23:59;;;;;;;1999.90;999.90;;;;;;;4.08;83.61;163484.97;5002682;28;20056;-65
2021/11/23 04:26:25;;;;;;;1999.90;999.90;;;;;;;3.64;84.36;163367.03;5000546;28;20390;-65
2021/11/23 04:28:52;;;;;;;1999.90;999.90;;;;;;;3.59;83.90;163353.31;5000634;28;20108;-65
2021/11/23 04:31:18;;;;;;;1999.90;999.90;;;;;;;3.61;84.14;163358.81;4998169;28;20217;-65
2021/11/23 04:33:45;;;;;;;1999.90;999.90;;;;;;;3.39;84.19;163301.25;4999884;28;20128;-65
2021/11/23 04:36:11;;;;;;;1999.90;999.90;;;;;;;3.30;84.51;163276.56;5001886;28;20104;-65
2021/11/23 04:38:38;;;;;;;1999.90;999.90;;;;;;;3.43;84.28;163312.22;4998593;28;20088;-65
2021/11/23 04:41:05;;;;;;;1999.90;999.90;;;;;;;3.35;84.56;163290.31;5000371;28;20077;-65
2021/11/23 04:43:31;;;;;;;1999.90;999.90;;;;;;;3.29;84.28;163273.81;4999561;28;20143;-65
2021/11/23 04:45:58;;;;;;;1999.90;999.90;;;;;;;3.35;84.23;163290.31;4997655;28;20053;-65
2021/11/23 04:48:26;;;;;;;1999.90;999.90;;;;;;;3.33;83.82;163286.19;4997269;28;20470;-65
2021/11/23 04:50:53;;;;;;;1999.90;999.90;;;;;;;2.92;84.77;163176.56;4996581;28;20116;-65
2021/11/23 04:53:19;;;;;;;1999.90;999.90;;;;;;;2.97;85.07;163188.88;4995207;28;20394;-65
2021/11/23 04:55:46;;;;;;;1999.90;999.90;;;;;;;2.96;84.94;163186.13;4997043;28;20117;-65
2021/11/23 04:58:12;;;;;;;1999.90;999.90;;;;;;;3.01;84.70;163199.88;4998432;28;20494;-65
2021/11/23 05:00:39;;;;;;;1999.90;999.90;;;;;;;3.31;83.77;163280.69;4998024;28;20501;-65
2021/11/23 05:03:06;;;;;;;1999.90;999.90;;;;;;;3.02;84.54;163201.22;4999429;28;20599;-65
2021/11/23 05:05:33;;;;;;;1999.90;999.90;;;;;;;3.03;84.70;163203.97;4999825;28;20092;-65
2021/11/23 05:08:00;;;;;;;1999.90;999.90;;;;;;;3.05;85.34;163210.84;4998130;28;20089;-65
2021/11/23 05:10:27;;;;;;;1999.90;999.90;;;;;;;2.96;85.30;163186.13;4997673;28;20415;-65
2021/11/23 05:12:54;;;;;;;1999.90;999.90;;;;;;;2.75;86.31;163131.31;4994333;28;20139;-65
2021/11/23 05:15:20;;;;;;;1999.90;999.90;;;;;;;2.98;85.94;163191.66;4995018;28;20081;-65
2021/11/23 05:17:47;;;;;;;1999.90;999.90;;;;;;;3.06;84.78;163212.19;4997496;28;20104;-65
2021/11/23 05:20:13;;;;;;;1999.90;999.90;;;;;;;2.77;85.50;163135.44;4996937;28;20069;-65
2021/11/23 05:22:40;;;;;;;1999.90;999.90;;;;;;;2.62;85.94;163097.09;4997583;28;20477;-65
2021/11/23 05:25:08;;;;;;;1999.90;999.90;;;;;;;2.77;85.67;163136.84;4997955;28;20400;-65
2021/11/23 05:27:34;;;;;;;1999.90;999.90;;;;;;;2.88;85.57;163165.59;4996889;28;20136;-65
2021/11/23 05:30:02;;;;;;;1999.90;999.90;;;;;;;2.90;85.31;163169.69;4997818;28;20054;-65
2021/11/23 05:32:29;;;;;;;1999.90;999.90;;;;;;;2.77;86.08;163135.44;5000105;28;20406;-65
2021/11/23 05:34:55;;;;;;;1999.90;999.90;;;;;;;2.66;86.29;163105.34;4997735;28;20076;-65
2021/11/23 05:37:22;;;;;;;1999.90;999.90;;;;;;;2.71;86.15;163120.41;4997402;28;20046;-65
2021/11/23 05:39:48;;;;;;;1999.90;999.90;;;;;;;2.68;86.11;163112.19;4996397;28;20084;-65
2021/11/23 05:42:15;;;;;;;1999.90;999.90;;;;;;;2.80;85.04;163145.06;4996834;28;20529;-65
2021/11/23 05:44:42;;;;;;;1999.90;999.90;;;;;;;2.69;85.84;163113.53;4998117;28;20054;-65
2021/11/23 05:47:09;;;;;;;1999.90;999.90;;;;;;;2.64;85.92;163101.22;4996543;28;20077;-65
2021/11/23 05:49:36;;;;;;;1999.90;999.90;;;;;;;2.82;85.08;163150.50;4997879;28;20069;-65
2021/11/23 05:52:03;;;;;;;1999.90;999.90;;;;;;;2.87;85.13;163161.47;4999903;28;20050;-65
2021/11/23 05:54:30;;;;;;;1999.90;999.90;;;;;;;3.05;84.91;163209.44;4999014;28;20141;-65
2021/11/23 05:56:57;;;;;;;1999.90;999.90;;;;;;;3.04;84.03;163208.06;5000478;28;20049;-65
2021/11/23 05:59:23;;;;;;;1999.90;999.90;;;;;;;3.12;84.14;163229.97;5001061;28;20458;-65
2021/11/23 06:01:51;;;;;;;1999.90;999.90;;;;;;;2.93;84.67;163177.91;4999267;28;20097;-65
2021/11/23 06:04:18;;;;;;;1999.90;999.90;;;;;;;2.76;84.81;163134.09;4999260;28;20041;-65
2021/11/23 06:06:44;;;;;;;1999.90;999.90;;;;;;;2.84;85.13;163153.28;4999867;28;20069;-65
2021/11/23 06:09:11;;;;;;;1999.90;999.90;;;;;;;2.77;84.57;163136.84;4997595;28;20101;-65
2021/11/23 06:11:37;;;;;;;1999.90;999.90;;;;;;;3.10;84.08;163224.50;5001233;28;20071;-65
2021/11/23 06:14:04;;;;;;;1999.90;999.90;;;;;;;2.79;84.45;163142.28;4999057;28;20513;-65
2021/11/23 06:16:32;;;;;;;1999.90;999.90;;;;;;;2.75;84.45;163129.97;4996396;28;20108;-65
2021/11/23 06:18:59;;;;;;;1999.90;999.90;;;;;;;2.47;84.85;163057.38;4999251;28;20053;-66
2021/11/23 06:21:27;;;;;;;1999.90;999.90;;;;;;;2.34;85.98;163021.78;4997723;28;20410;-66
2021/11/23 06:23:54;;;;;;;1999.90;999.90;;;;;;;2.61;86.21;163094.34;4998903;28;20059;-66
2021/11/23 06:26:21;;;;;;;1999.90;999.90;;;;;;;2.66;85.28;163106.69;5006715;28;20058;-66
2021/11/23 06:28:48;;;;;;;1999.90;999.90;;;;;;;2.72;85.29;163121.75;4999338;28;20109;-66
2021/11/23 06:31:15;;;;;;;1999.90;999.90;;;;;;;2.79;83.98;163142.28;5000129;28;20081;-66
2021/11/23 06:33:42;;;;;;;1999.90;999.90;;;;;;;2.85;83.86;163157.38;4999691;28;20046;-66
2021/11/23 06:36:08;;;;;;;1999.90;999.90;;;;;;;3.05;83.24;163209.44;5005164;28;20073;-66
2021/11/23 06:38:35;;;;;;;1999.90;999.90;;;;;;;3.08;82.62;163219.06;5005652;28;20177;-66
2021/11/23 06:41:01;;;;;;;1999.90;999.90;;;;;;;3.04;81.95;163208.06;5005851;28;20355;-66
2021/11/23 06:43:28;;;;;;;1999.90;999.90;;;;;;;2.89;83.30;163166.94;4998068;28;20460;-66
2021/11/23 06:45:58;;;;;;;1999.90;999.90;;;;;;;2.97;82.81;163188.88;5004004;28;20054;-66
2021/11/23 06:48:24;;;;;;;1999.90;999.90;;;;;;;3.27;82.00;163268.38;4995728;28;20420;-66
2021/11/23 06:50:51;;;;;;;1999.90;999.90;;;;;;;3.27;81.59;163268.38;4999160;28;20054;-66
2021/11/23 06:53:17;;;;;;;1999.90;999.90;;;;;;;3.55;80.95;163342.38;5007410;28;20108;-66
2021/11/23 06:55:44;;;;;;;1999.90;999.90;;;;;;;3.53;81.01;163338.28;5001548;28;20050;-66
2021/11/23 06:58:11;;;;;;;1999.90;999.90;;;;;;;3.67;81.04;163375.28;5006170;28;20135;-66
2021/11/23 07:00:39;;;;;;;1999.90;999.90;;;;;;;3.65;81.09;163369.81;5009816;28;20096;-66
2021/11/23 07:03:06;;;;;;;1999.90;999.90;;;;;;;3.68;81.19;163378.03;5001329;28;20054;-66
2021/11/23 07:05:33;;;;;;;1999.90;999.90;;;;;;;3.70;81.12;163383.50;5003052;28;20078;-66
2021/11/23 07:08:20;;;;;;;1999.90;999.90;;;;;;;3.76;81.33;163399.94;5000577;28;20042;-66
2021/11/23 07:10:46;;;;;;;1999.90;999.90;;;;;;;3.77;81.39;163402.69;4997564;28;20147;-66
2021/11/23 07:13:13;;;;;;;1999.90;999.90;;;;;;;3.63;81.22;163364.28;4996820;28;20096;-66
2021/11/23 07:15:39;;;;;;;1999.90;999.90;;;;;;;3.56;81.21;163345.09;4997042;28;20057;-66
2021/11/23 07:18:06;;;;;;;1999.90;999.90;;;;;;;3.55;81.53;163342.38;4997416;28;20054;-66
2021/11/23 07:20:33;;;;;;;1999.90;999.90;;;;;;;3.51;81.98;163334.16;4994645;28;20152;-66
2021/11/23 07:22:59;;;;;;;1999.90;999.90;;;;;;;3.60;81.54;163356.06;4997958;28;20050;-66
2021/11/23 07:25:26;;;;;;;1999.90;999.90;;;;;;;3.43;81.66;163310.88;4997531;28;20081;-66
2021/11/23 07:27:52;;;;;;;1999.90;999.90;;;;;;;3.50;81.24;163330.06;4997962;28;20081;-66
2021/11/23 07:30:19;;;;;;;1999.90;999.90;;;;;;;3.37;80.95;163294.41;5000506;28;20116;-66
2021/11/23 07:32:46;;;;;;;1999.90;999.90;;;;;;;3.35;80.82;163290.31;4997343;28;20050;-68
2021/11/23 07:35:15;;;;;;;1999.90;999.90;;;;;;;3.11;81.49;163227.28;4998578;28;20103;-66
2021/11/23 07:37:41;;;;;;;1999.90;999.90;;;;;;;3.02;81.91;163202.56;4996600;28;20057;-66
2021/11/23 07:40:10;;;;;;;1999.90;999.90;;;;;;;3.05;81.28;163210.84;4995946;28;20058;-66
2021/11/23 07:42:37;;;;;;;1999.90;999.90;;;;;;;3.25;81.20;163264.25;4998041;28;20057;-66
2021/11/23 07:45:07;;;;;;;1999.90;999.90;;;;;;;3.38;80.45;163298.53;4998550;28;20084;-66
2021/11/23 07:47:34;;;;;;;1999.90;999.90;;;;;;;3.22;81.53;163254.69;4996573;28;20046;-66
2021/11/23 07:50:01;;;;;;;1999.90;999.90;;;;;;;3.39;79.93;163301.25;4998480;28;20201;-66
2021/11/23 07:52:28;;;;;;;1999.90;999.90;;;;;;;3.29;79.90;163273.81;4998985;28;20061;-66
2021/11/23 07:54:54;;;;;;;1999.90;999.90;;;;;;;3.11;80.64;163227.28;4995752;28;20078;-66
2021/11/23 07:57:21;;;;;;;1999.90;999.90;;;;;;;3.24;79.94;163260.16;4997100;28;20082;-66
2021/11/23 07:59:47;;;;;;;1999.90;999.90;;;;;;;3.34;79.55;163288.91;4997616;28;20134;-66
2021/11/23 08:02:14;;;;;;;1999.90;999.90;;;;;;;3.58;79.82;163350.59;4995175;28;20120;-66
2021/11/23 08:04:41;;;;;;;1999.90;999.90;;;;;;;3.65;77.42;163369.81;4998967;28;20046;-66
2021/11/23 08:07:08;;;;;;;1999.90;999.90;;;;;;;3.94;76.33;163446.56;4997733;28;20151;-66
2021/11/23 08:09:34;;;;;;;1999.90;999.90;;;;;;;3.84;76.12;163421.88;4996873;28;20073;-66
2021/11/23 08:12:03;;;;;;;1999.90;999.90;;;;;;;3.78;76.03;163405.44;4998050;28;20462;-66
2021/11/23 08:14:30;;;;;;;1999.90;999.90;;;;;;;3.61;76.08;163358.81;4995340;28;20062;-66
2021/11/23 08:16:57;;;;;;;1999.90;999.90;;;;;;;3.22;76.24;163254.69;4993460;28;20517;-66
2021/11/23 08:19:24;;;;;;;1999.90;999.90;;;;;;;3.74;75.61;163393.06;4997122;28;20050;-66
2021/11/23 08:21:50;;;;;;;1999.90;999.90;;;;;;;3.85;75.07;163424.59;4997609;28;20144;-66
2021/11/23 08:24:17;;;;;;;1999.90;999.90;;;;;;;3.77;73.85;163401.34;4995620;28;20470;-67
2021/11/23 08:26:43;;;;;;;1999.90;999.90;;;;;;;3.77;74.31;163402.69;4994692;28;20089;-66
2021/11/23 08:29:10;;;;;;;1999.90;999.90;;;;;;;4.19;74.00;163515.09;4995158;28;20077;-66
2021/11/23 08:31:39;;;;;;;1999.90;999.90;;;;;;;3.93;72.96;163445.22;4996976;28;20053;-66
2021/11/23 08:34:06;;;;;;;1999.90;999.90;;;;;;;3.63;73.96;163364.28;4995935;28;20050;-66
2021/11/23 08:36:34;;;;;;;1999.90;999.90;;;;;;;3.48;73.58;163325.94;4993688;28;20073;-66
2021/11/23 08:39:03;;;;;;;1999.90;999.90;;;;;;;4.21;72.69;163519.22;4995864;28;20050;-64
2021/11/23 08:41:30;;;;;;;1999.90;999.90;;;;;;;4.06;73.17;163479.44;4997202;28;20111;-64
2021/11/23 08:43:56;;;;;;;1999.90;999.90;;;;;;;4.13;72.54;163498.66;4994924;28;20489;-64
2021/11/23 08:46:23;;;;;;;1999.90;999.90;;;;;;;4.58;73.46;163617.97;4997882;28;20045;-64
2021/11/23 08:48:50;;;;;;;1999.90;999.90;;;;;;;4.76;72.88;163667.38;4997937;28;20054;-65
2021/11/23 08:51:22;;;;;;;1999.90;999.90;;;;;;;4.70;73.02;163649.50;4996381;28;20053;-65
2021/11/23 08:53:49;;;;;;;1999.90;999.90;;;;;;;4.69;72.15;163646.75;4997476;28;20101;-65
2021/11/23 08:56:16;;;;;;;1999.90;999.90;;;;;;;4.12;73.35;163495.91;4997642;28;20046;-65
2021/11/23 08:58:44;;;;;;;1999.90;999.90;;;;;;;4.36;73.76;163558.97;4994209;28;20058;-65
2021/11/23 09:01:11;;;;;;;1999.90;999.90;;;;;;;4.48;73.40;163590.53;4997789;28;20045;-65
2021/11/23 09:03:39;;;;;;;1999.90;999.90;;;;;;;4.26;73.64;163531.53;4995633;28;20046;-65
2021/11/23 09:06:06;;;;;;;1999.90;999.90;;;;;;;3.87;74.68;163430.13;4994457;28;20116;-65
2021/11/23 09:08:36;;;;;;;1999.90;999.90;;;;;;;4.36;73.45;163560.38;4996136;28;20458;-65
2021/11/23 09:11:03;;;;;;;1999.90;999.90;;;;;;;4.30;72.95;163543.94;4995742;28;20097;-65
2021/11/23 09:13:30;;;;;;;1999.90;999.90;;;;;;;4.11;74.73;163491.78;4994119;28;20075;-65
2021/11/23 09:15:56;;;;;;;1999.90;999.90;;;;;;;4.77;72.83;163668.72;4997750;28;20050;-65
2021/11/23 09:18:23;;;;;;;1999.90;999.90;;;;;;;4.88;72.38;163698.94;4996363;28;20375;-65
2021/11/23 09:31:41;;;;;;;1999.90;999.90;;;;;;;4.85;70.94;163690.66;4997728;28;20072;-65
2021/11/23 09:34:08;;;;;;;1999.90;999.90;;;;;;;5.06;70.51;163746.94;4998121;28;20057;-65
2021/11/23 09:36:34;;;;;;;1999.90;999.90;;;;;;;4.80;71.35;163675.59;4995584;28;20053;-65
2021/11/23 09:39:01;;;;;;;1999.90;999.90;;;;;;;4.86;70.51;163693.41;4997437;28;20054;-65
2021/11/23 09:41:29;;;;;;;1999.90;999.90;;;;;;;4.08;72.11;163484.97;4995331;28;20522;-66
2021/11/23 09:43:55;;;;;;;1999.90;999.90;;;;;;;4.43;69.27;163576.84;4994583;28;20046;-65
2021/11/23 09:46:22;;;;;;;1999.90;999.90;;;;;;;4.46;70.48;163586.41;4995197;28;20080;-65
2021/11/23 09:48:48;;;;;;;1999.90;999.90;;;;;;;4.63;70.59;163630.31;4995651;28;20054;-65
2021/11/23 09:51:19;;;;;;;1999.90;999.90;;;;;;;4.73;69.13;163657.75;4993733;28;20073;-66
2021/11/23 09:53:45;;;;;;;1999.90;999.90;;;;;;;5.29;69.49;163807.31;4995555;28;20054;-65
2021/11/23 09:56:12;;;;;;;1999.90;999.90;;;;;;;5.64;69.30;163902.03;4997720;28;20081;-65
2021/11/23 09:58:39;;;;;;;1999.90;999.90;;;;;;;6.01;68.41;163998.16;4996520;28;20089;-65
2021/11/23 10:01:09;;;;;;;1999.90;999.90;;;;;;;5.90;67.51;163969.28;4997921;28;20104;-66
2021/11/23 10:03:37;;;;;;;1999.90;999.90;;;;;;;5.82;69.29;163950.06;4995895;28;20046;-66
2021/11/23 10:06:13;;;;;;;1999.90;999.90;;;;;;;5.82;69.04;163948.66;5000483;28;20073;-66
2021/11/23 10:08:42;;;;;;;1999.90;999.90;;;;;;;5.93;68.02;163978.88;5001708;28;20053;-66
2021/11/23 10:11:11;;;;;;;1999.90;999.90;;;;;;;6.07;67.11;164014.63;5000654;28;20077;-66
2021/11/23 10:13:41;;;;;;;1999.90;999.90;;;;;;;5.64;66.87;163902.03;4999811;28;20360;-66
2021/11/23 10:16:08;;;;;;;1999.90;999.90;;;;;;;6.05;68.44;164009.16;5002780;28;20403;-66
2021/11/23 10:18:50;;;;;;;1999.90;999.90;;;;;;;5.86;66.54;163958.31;5000364;28;20080;-66
2021/11/23 10:21:19;;;;;;;1999.90;999.90;;;;;;;5.86;68.26;163959.66;5000225;28;20337;-66
2021/11/23 10:23:52;;;;;;;1999.90;999.90;;;;;;;5.28;66.84;163805.97;5000523;28;20051;-66
2021/11/23 10:26:31;;;;;;;1999.90;999.90;;;;;;;5.26;66.06;163800.44;5000183;28;20633;-66
2021/11/23 10:28:59;;;;;;;1999.90;999.90;;;;;;;5.12;66.57;163762.00;4998822;28;20077;-66
2021/11/23 10:31:39;;;;;;;1999.90;999.90;;;;;;;4.99;66.37;163726.31;4999028;28;20432;-66
2021/11/23 10:34:15;;;;;;;1999.90;999.90;;;;;;;5.59;66.10;163886.91;4999502;28;20057;-66
2021/11/23 10:36:45;;;;;;;1999.90;999.90;;;;;;;5.43;67.50;163844.34;4998890;28;20108;-66
2021/11/23 10:39:20;;;;;;;1999.90;999.90;;;;;;;5.56;67.74;163880.03;5000904;28;20386;-66
2021/11/23 10:41:53;;;;;;;1999.90;999.90;;;;;;;6.03;69.38;164003.66;5000239;28;20073;-66
2021/11/23 10:44:31;;;;;;;1999.90;999.90;;;;;;;6.56;66.96;164146.47;4999108;28;20081;-66
2021/11/23 10:47:04;;;;;;;1999.90;999.90;;;;;;;6.07;68.01;164014.63;5001215;28;20046;-66
2021/11/23 10:49:42;;;;;;;1999.90;999.90;;;;;;;6.59;67.25;164153.34;4999578;28;20178;-66
2021/11/23 10:52:35;;;;;;;1999.90;999.90;;;;;;;6.93;64.98;164245.38;4999004;28;20084;-66
2021/11/23 10:55:26;;;;;;;1999.90;999.90;;;;;;;6.62;65.96;164162.94;5000019;28;20045;-65
2021/11/23 10:57:55;;;;;;;1999.90;999.90;;;;;;;6.28;66.15;164070.94;5001262;28;20073;-65
2021/11/23 11:00:24;;;;;;;1999.90;999.90;;;;;;;6.59;66.61;164154.69;4999612;28;20407;-65
2021/11/23 11:02:54;;;;;;;1999.90;999.90;;;;;;;6.62;66.60;164161.59;4998951;28;20124;-65
2021/11/23 11:05:22;;;;;;;1999.90;999.90;;;;;;;6.37;67.03;164094.28;5000918;28;20056;-65
2021/11/23 11:07:53;;;;;;;1999.90;999.90;;;;;;;6.39;68.06;164099.81;4999317;28;20078;-65